Time;durP1;ratioP1;P1;durP2;ratioP2;P2;SDS_P1;SDS_P2;PMS_P1;PMS_P2;Temp;Humidity;BMP_temperature;BMP_pressure;BME280_temperature;BME280_humidity;BME280_pressure;Samples;Min_cycle;Max_cycle;Signal;HPM_P1;HPM_P2
2020/12/24 00:00:07;;;;;;;26.87;19.67;;;;;;;-0.82;90.24;100375.30;1823539;77;21006;-76
2020/12/24 00:02:42;;;;;;;29.37;21.57;;;;;;;-0.81;90.23;100380.41;1823643;78;20927;-75
2020/12/24 00:05:12;;;;;;;28.38;20.40;;;;;;;-0.80;90.20;100382.08;1823616;78;20951;-76
2020/12/24 00:07:41;;;;;;;28.70;19.77;;;;;;;-0.82;90.17;100383.83;1823696;78;21464;-75
2020/12/24 00:10:10;;;;;;;32.42;22.20;;;;;;;-0.81;90.22;100386.80;1823751;78;22107;-75
2020/12/24 00:12:39;;;;;;;31.12;20.35;;;;;;;-0.80;90.25;100390.20;1817244;78;21477;-76
2020/12/24 00:15:08;;;;;;;26.40;18.90;;;;;;;-0.79;90.21;100390.59;1725879;81;20944;-75
2020/12/24 00:17:37;;;;;;;32.00;21.40;;;;;;;-0.79;90.14;100391.88;1757298;81;20941;-76
2020/12/24 00:20:05;;;;;;;30.70;20.65;;;;;;;-0.81;90.16;100392.34;1757366;81;21005;-75
2020/12/24 00:22:34;;;;;;;33.28;21.85;;;;;;;-0.81;90.19;100402.57;1757316;81;21270;-75
2020/12/24 00:25:03;;;;;;;30.75;21.77;;;;;;;-0.81;90.33;100397.45;1757247;81;20958;-75
2020/12/24 00:27:31;;;;;;;32.73;21.25;;;;;;;-0.81;90.24;100397.45;1757311;81;21511;-75
2020/12/24 00:30:00;;;;;;;33.42;22.17;;;;;;;-0.81;90.26;100385.95;1757250;80;21480;-75
2020/12/24 00:32:28;;;;;;;36.85;21.50;;;;;;;-0.81;90.20;100388.08;1757310;81;20945;-75
2020/12/24 00:34:57;;;;;;;32.78;20.32;;;;;;;-0.80;90.24;100383.36;1734076;81;21361;-75
2020/12/24 00:37:25;;;;;;;31.97;20.43;;;;;;;-0.79;90.21;100383.78;1757236;81;21028;-74
2020/12/24 00:39:53;;;;;;;33.13;19.95;;;;;;;-0.79;90.10;100376.53;1757395;81;21602;-73
2020/12/24 00:42:21;;;;;;;34.88;21.87;;;;;;;-0.80;90.05;100382.53;1757217;80;20989;-75
2020/12/24 00:44:50;;;;;;;30.08;19.32;;;;;;;-0.81;90.14;100378.28;1758847;81;20922;-75
2020/12/24 00:47:18;;;;;;;32.48;21.70;;;;;;;-0.80;90.17;100373.59;1757417;81;22015;-74
2020/12/24 00:49:46;;;;;;;31.62;20.23;;;;;;;-0.81;90.11;100370.61;1757243;80;21552;-75
2020/12/24 00:52:15;;;;;;;30.65;21.45;;;;;;;-0.81;90.06;100369.33;1757283;80;21045;-75
2020/12/24 00:54:43;;;;;;;31.77;20.82;;;;;;;-0.81;90.08;100371.89;1757234;81;21060;-74
2020/12/24 00:57:12;;;;;;;26.65;19.15;;;;;;;-0.80;90.04;100365.92;1757334;81;20905;-75
2020/12/24 00:59:40;;;;;;;28.00;20.23;;;;;;;-0.79;89.97;100359.91;1757323;81;21137;-75
2020/12/24 01:02:08;;;;;;;28.30;19.57;;;;;;;-0.80;89.90;100361.63;1757262;81;21503;-75
2020/12/24 01:04:36;;;;;;;25.88;19.00;;;;;;;-0.78;89.88;100356.50;1757305;81;21033;-74
2020/12/24 01:07:04;;;;;;;30.70;21.27;;;;;;;-0.78;89.82;100349.69;1757272;81;21013;-75
2020/12/24 01:09:33;;;;;;;31.35;19.87;;;;;;;-0.77;89.80;100354.37;1757303;81;20970;-75
2020/12/24 01:12:01;;;;;;;26.42;20.00;;;;;;;-0.77;89.74;100350.11;1757356;81;22085;-75
2020/12/24 01:14:29;;;;;;;28.55;18.98;;;;;;;-0.76;89.63;100350.53;1765044;79;20956;-75
2020/12/24 01:16:57;;;;;;;28.25;19.60;;;;;;;-0.77;89.52;100351.38;1760143;80;21032;-75
2020/12/24 01:19:25;;;;;;;27.37;18.55;;;;;;;-0.77;89.57;100353.09;1760097;80;20985;-74
2020/12/24 01:21:54;;;;;;;26.60;19.17;;;;;;;-0.77;89.51;100354.37;1760132;81;21056;-74
2020/12/24 01:24:22;;;;;;;27.55;18.67;;;;;;;-0.79;89.44;100348.41;1760104;81;21243;-73
2020/12/24 01:26:50;;;;;;;25.05;18.20;;;;;;;-0.80;89.38;100356.97;1760071;80;20985;-75
2020/12/24 01:29:19;;;;;;;27.58;18.70;;;;;;;-0.83;89.35;100357.84;1760087;81;20989;-74
2020/12/24 01:31:48;;;;;;;26.48;18.98;;;;;;;-0.86;89.36;100360.41;1760102;81;20997;-75
2020/12/24 01:34:18;;;;;;;27.35;19.48;;;;;;;-0.88;89.52;100369.78;1760092;81;21048;-75
2020/12/24 01:36:46;;;;;;;23.57;17.55;;;;;;;-0.87;89.62;100371.91;1760135;80;21064;-75
2020/12/24 01:39:15;;;;;;;26.75;19.17;;;;;;;-0.85;89.63;100379.14;1760069;81;20988;-74
2020/12/24 01:41:46;;;;;;;25.72;17.87;;;;;;;-0.84;89.53;100375.73;1760015;80;21013;-75
2020/12/24 01:44:14;;;;;;;26.55;18.55;;;;;;;-0.86;89.57;100370.62;1707707;81;21582;-76
2020/12/24 01:46:42;;;;;;;23.10;16.85;;;;;;;-0.84;89.62;100378.30;1760091;81;20989;-74
2020/12/24 01:49:13;;;;;;;27.15;17.62;;;;;;;-0.83;89.61;100364.23;1759932;81;21353;-75
2020/12/24 01:51:52;;;;;;;29.45;18.85;;;;;;;-0.82;89.56;100358.69;1760133;80;21507;-75
2020/12/24 01:54:23;;;;;;;24.12;18.42;;;;;;;-0.83;89.50;100356.56;1759764;81;20961;-75
2020/12/24 01:56:52;;;;;;;25.92;19.00;;;;;;;-0.83;89.45;100352.72;1760096;81;20985;-74
2020/12/24 01:59:22;;;;;;;27.05;18.40;;;;;;;-0.83;89.52;100355.70;1760071;80;20945;-75
2020/12/24 02:01:51;;;;;;;25.60;18.60;;;;;;;-0.82;89.52;100355.70;1760215;81;22054;-74
2020/12/24 02:04:19;;;;;;;27.00;19.50;;;;;;;-0.84;89.42;100362.52;1760028;81;21439;-75
2020/12/24 02:06:50;;;;;;;25.62;17.90;;;;;;;-0.83;89.47;100348.03;1760093;81;21432;-74
2020/12/24 02:09:18;;;;;;;24.25;18.12;;;;;;;-0.81;89.52;100348.88;1760058;81;21519;-74
2020/12/24 02:11:47;;;;;;;23.07;17.92;;;;;;;-0.79;89.61;100352.25;1760190;81;21443;-74
2020/12/24 02:14:16;;;;;;;24.77;17.77;;;;;;;-0.78;89.42;100352.23;1756217;81;22146;-75
2020/12/24 02:16:44;;;;;;;26.60;18.48;;;;;;;-0.78;89.36;100354.80;1754691;81;21048;-75
2020/12/24 02:19:12;;;;;;;27.87;18.85;;;;;;;-0.77;89.27;100362.04;1754688;81;20990;-74
2020/12/24 02:21:40;;;;;;;28.07;18.75;;;;;;;-0.77;89.28;100356.92;1754712;81;20969;-75
2020/12/24 02:24:09;;;;;;;23.98;17.95;;;;;;;-0.76;89.30;100354.80;1754623;81;20961;-74
2020/12/24 02:26:37;;;;;;;24.05;17.40;;;;;;;-0.75;89.26;100357.77;1754752;81;22087;-74
2020/12/24 02:29:05;;;;;;;24.20;17.80;;;;;;;-0.76;89.19;100353.08;1754544;81;21037;-74
2020/12/24 02:31:34;;;;;;;23.70;17.10;;;;;;;-0.77;89.21;100353.09;1754671;81;21005;-74
2020/12/24 02:34:02;;;;;;;26.57;18.25;;;;;;;-0.77;89.18;100355.64;1754665;81;20906;-75
2020/12/24 02:36:30;;;;;;;26.62;18.75;;;;;;;-0.78;89.20;100361.62;1754675;81;20938;-74
2020/12/24 02:38:59;;;;;;;24.72;17.42;;;;;;;-0.79;89.12;100362.05;1754719;81;22129;-74
2020/12/24 02:41:27;;;;;;;26.77;17.67;;;;;;;-0.78;89.12;100362.89;1754574;81;21589;-75
2020/12/24 02:43:55;;;;;;;25.00;17.75;;;;;;;-0.78;89.06;100361.62;1754692;81;21024;-75
2020/12/24 02:46:23;;;;;;;25.30;17.73;;;;;;;-0.79;88.96;100368.87;1754590;81;21001;-73
2020/12/24 02:48:52;;;;;;;25.23;17.82;;;;;;;-0.80;89.05;100367.20;1754640;81;21084;-74
2020/12/24 02:51:20;;;;;;;25.92;17.42;;;;;;;-0.82;89.02;100373.59;1754683;81;21367;-77
2020/12/24 02:53:49;;;;;;;24.43;17.15;;;;;;;-0.83;89.08;100364.66;1754644;81;21503;-75
2020/12/24 02:56:18;;;;;;;24.80;16.55;;;;;;;-0.84;89.17;100362.52;1754692;81;20957;-76
2020/12/24 02:58:47;;;;;;;25.35;18.37;;;;;;;-0.84;89.13;100356.13;1754659;81;21072;-76
2020/12/24 03:01:16;;;;;;;23.45;15.98;;;;;;;-0.84;89.24;100351.45;1754779;81;21558;-76
2020/12/24 03:03:44;;;;;;;25.90;17.10;;;;;;;-0.82;89.24;100348.45;1754641;80;21410;-76
2020/12/24 03:06:12;;;;;;;23.35;16.40;;;;;;;-0.84;89.24;100344.63;1754595;80;21001;-76
2020/12/24 03:08:40;;;;;;;24.85;15.88;;;;;;;-0.85;89.31;100340.38;1754649;81;21492;-77
2020/12/24 03:11:08;;;;;;;25.70;16.10;;;;;;;-0.85;89.28;100345.91;1754650;81;20946;-76
2020/12/24 03:13:37;;;;;;;25.97;17.10;;;;;;;-0.85;89.39;100343.36;1756389;81;21021;-76
2020/12/24 03:16:06;;;;;;;22.58;16.20;;;;;;;-0.84;89.36;100347.62;1733764;81;22243;-76
2020/12/24 03:18:35;;;;;;;25.60;16.95;;;;;;;-0.86;89.31;100342.94;1798267;79;21031;-76
2020/12/24 03:21:03;;;;;;;24.40;16.97;;;;;;;-0.88;89.36;100346.78;1798301;79;20940;-76
2020/12/24 03:23:31;;;;;;;25.08;17.07;;;;;;;-0.89;89.42;100341.24;1798244;79;21046;-77
2020/12/24 03:25:59;;;;;;;23.25;16.30;;;;;;;-0.88;89.52;100336.55;1798305;79;21050;-76
2020/12/24 03:28:28;;;;;;;24.45;17.17;;;;;;;-0.85;89.62;100331.86;1798275;79;21262;-77
2020/12/24 03:30:56;;;;;;;25.72;18.00;;;;;;;-0.82;89.54;100335.25;1798207;79;21007;-77
2020/12/24 03:33:25;;;;;;;21.87;16.17;;;;;;;-0.81;89.44;100324.16;1798284;79;20988;-76
2020/12/24 03:35:53;;;;;;;27.73;18.12;;;;;;;-0.82;89.31;100319.91;1798225;79;20924;-76
2020/12/24 03:38:21;;;;;;;22.90;16.25;;;;;;;-0.81;89.35;100325.44;1798320;79;20904;-76
2020/12/24 03:40:50;;;;;;;23.87;16.30;;;;;;;-0.79;89.42;100331.80;1798286;79;22118;-75
2020/12/24 03:43:18;;;;;;;22.87;15.95;;;;;;;-0.78;89.44;100333.06;1798183;79;20912;-76
2020/12/24 03:45:46;;;;;;;22.67;15.45;;;;;;;-0.77;89.29;100333.48;1798274;79;20939;-77
2020/12/24 03:48:15;;;;;;;22.05;15.55;;;;;;;-0.76;89.21;100331.35;1798336;78;20984;-77
2020/12/24 03:50:43;;;;;;;23.18;15.75;;;;;;;-0.74;89.65;100328.79;1798402;79;21494;-78
2020/12/24 03:53:11;;;;;;;22.05;15.32;;;;;;;-0.73;89.62;100316.42;1798272;79;21359;-75
2020/12/24 03:55:39;;;;;;;21.10;15.32;;;;;;;-0.73;89.50;100318.98;1798232;79;20964;-76
2020/12/24 03:58:08;;;;;;;18.73;14.25;;;;;;;-0.73;89.33;100321.54;1798292;79;21019;-76
2020/12/24 04:00:37;;;;;;;20.08;14.55;;;;;;;-0.73;89.60;100322.81;1798352;79;21000;-76
2020/12/24 04:03:05;;;;;;;19.75;14.00;;;;;;;-0.70;89.59;100311.30;1798290;79;20964;-76
2020/12/24 04:05:33;;;;;;;18.82;13.38;;;;;;;-0.67;89.35;100306.16;1798345;79;21051;-75
2020/12/24 04:08:02;;;;;;;18.62;14.03;;;;;;;-0.69;89.43;100303.61;1798177;79;20915;-75
2020/12/24 04:10:30;;;;;;;21.57;15.90;;;;;;;-0.67;89.41;100299.34;1798240;78;20936;-76
2020/12/24 04:12:59;;;;;;;24.50;17.73;;;;;;;-0.68;89.27;100291.67;1798210;78;21559;-76
2020/12/24 04:15:27;;;;;;;22.35;16.90;;;;;;;-0.67;89.27;100299.34;1805692;79;21564;-75
2020/12/24 04:17:55;;;;;;;24.12;18.90;;;;;;;-0.67;89.25;100295.94;1806218;79;21260;-75
2020/12/24 04:20:24;;;;;;;21.07;15.68;;;;;;;-0.65;89.14;100299.77;1806126;79;20999;-75
2020/12/24 04:22:53;;;;;;;24.98;18.20;;;;;;;-0.67;88.94;100304.45;1806178;79;20896;-75
2020/12/24 04:25:21;;;;;;;24.87;18.42;;;;;;;-0.70;89.02;100296.80;1806152;79;20939;-77
2020/12/24 04:27:50;;;;;;;31.10;22.52;;;;;;;-0.72;89.14;100289.57;1806204;78;20900;-74
2020/12/24 04:30:18;;;;;;;30.30;21.97;;;;;;;-0.73;89.33;100289.15;1806145;79;21193;-75
2020/12/24 04:32:48;;;;;;;24.35;17.10;;;;;;;-0.71;90.00;100295.53;1806125;78;20967;-75
2020/12/24 04:35:16;;;;;;;20.70;15.18;;;;;;;-0.63;90.59;100300.60;1806122;79;21145;-76
2020/12/24 04:37:45;;;;;;;33.90;24.55;;;;;;;-0.54;90.65;100295.44;1806124;79;20947;-74
2020/12/24 04:40:13;;;;;;;25.10;18.70;;;;;;;-0.51;90.04;100302.66;1806257;79;20935;-74
2020/12/24 04:42:41;;;;;;;29.10;21.30;;;;;;;-0.50;89.62;100299.24;1806174;79;21195;-76
2020/12/24 04:45:09;;;;;;;32.28;22.42;;;;;;;-0.52;89.39;100299.68;1806110;78;20940;-75
2020/12/24 04:47:39;;;;;;;29.63;21.23;;;;;;;-0.52;89.29;100299.68;1806283;79;21007;-76
2020/12/24 04:50:07;;;;;;;26.48;17.80;;;;;;;-0.53;89.27;100294.58;1806243;79;21066;-74
2020/12/24 04:52:36;;;;;;;31.45;23.22;;;;;;;-0.53;89.18;100289.03;1806458;79;21560;-76
2020/12/24 04:55:05;;;;;;;21.12;16.40;;;;;;;-0.55;89.11;100292.03;1806360;78;21409;-78
2020/12/24 04:57:36;;;;;;;29.55;20.60;;;;;;;-0.55;89.47;100292.45;1806311;79;20999;-78
2020/12/24 05:00:04;;;;;;;23.62;17.27;;;;;;;-0.52;89.60;100295.00;1806332;79;21047;-76
2020/12/24 05:02:32;;;;;;;26.35;18.23;;;;;;;-0.49;89.95;100293.70;1806267;79;20947;-78
2020/12/24 05:05:03;;;;;;;24.90;18.07;;;;;;;-0.44;89.96;100291.95;1806339;79;20896;-77
2020/12/24 05:07:31;;;;;;;25.40;17.45;;;;;;;-0.43;89.68;100291.95;1806434;79;21327;-77
2020/12/24 05:10:00;;;;;;;24.18;17.57;;;;;;;-0.41;89.79;100282.98;1806223;79;20940;-75
2020/12/24 05:12:31;;;;;;;20.37;15.10;;;;;;;-0.40;89.52;100288.52;1806315;79;20986;-76
2020/12/24 05:15:00;;;;;;;24.12;17.37;;;;;;;-0.40;89.87;100279.10;1806191;79;20939;-78
2020/12/24 05:17:28;;;;;;;22.32;16.27;;;;;;;-0.34;90.19;100274.37;1806330;79;20931;-77
2020/12/24 05:20:05;;;;;;;26.55;19.62;;;;;;;-0.28;90.04;100270.48;1806430;78;22121;-74
2020/12/24 05:22:34;;;;;;;27.77;20.10;;;;;;;-0.26;89.75;100266.64;1806302;79;21054;-75
2020/12/24 05:25:10;;;;;;;23.77;17.80;;;;;;;-0.27;89.43;100274.75;1806336;79;21030;-76
2020/12/24 05:27:38;;;;;;;;;;;;;;;-0.29;89.27;100285.85;1809066;79;21019;-77
2020/12/24 05:30:06;;;;;;;23.67;16.45;;;;;;;-0.33;89.18;100274.79;1806347;79;20388;-77
2020/12/24 05:32:35;;;;;;;21.30;15.00;;;;;;;-0.38;89.20;100272.27;1806352;79;22084;-75
2020/12/24 05:35:10;;;;;;;19.90;14.47;;;;;;;-0.40;89.21;100266.77;1806218;79;21019;-76
2020/12/24 05:37:39;;;;;;;20.50;14.33;;;;;;;-0.45;89.05;100265.95;1806481;79;21014;-77
2020/12/24 05:40:23;;;;;;;20.45;15.13;;;;;;;-0.49;89.34;100275.36;1786396;79;21466;-77
2020/12/24 05:43:01;;;;;;;25.48;17.52;;;;;;;-0.51;89.61;100274.95;1806299;79;20920;-77
2020/12/24 05:45:32;;;;;;;24.30;16.25;;;;;;;-0.51;89.72;100271.97;1765631;81;22075;-77
2020/12/24 05:48:13;;;;;;;26.02;17.12;;;;;;;-0.53;89.75;100276.67;1765474;81;21036;-75
2020/12/24 05:50:43;;;;;;;25.12;15.80;;;;;;;-0.54;90.01;100276.25;1765558;81;20973;-71
2020/12/24 05:53:13;;;;;;;29.48;20.32;;;;;;;-0.53;90.16;100274.11;1781094;78;20998;-72
2020/12/24 05:55:42;;;;;;;26.42;18.77;;;;;;;-0.54;90.23;100277.09;1796320;79;20935;-70
2020/12/24 05:58:10;;;;;;;39.95;21.35;;;;;;;-0.53;90.34;100283.06;1796069;79;21192;-69
2020/12/24 06:00:42;;;;;;;34.10;22.48;;;;;;;-0.51;90.81;100280.92;1795518;79;21077;-70
2020/12/24 06:03:18;;;;;;;26.95;15.70;;;;;;;-0.46;91.01;100280.89;1787864;78;20983;-73
2020/12/24 06:05:59;;;;;;;39.33;20.88;;;;;;;-0.42;91.11;100278.30;1776123;78;20935;-69
2020/12/24 06:08:34;;;;;;;31.45;20.00;;;;;;;-0.39;90.91;100283.79;1782832;78;21057;-74
2020/12/24 06:11:10;;;;;;;32.88;21.00;;;;;;;-0.39;90.86;100280.80;1799775;78;21894;-72
2020/12/24 06:13:58;;;;;;;34.58;20.20;;;;;;;-0.38;90.75;100288.89;1773439;78;20988;-71
2020/12/24 06:16:29;;;;;;;28.55;19.57;;;;;;;-0.38;90.68;100290.17;1746903;80;21190;-72
2020/12/24 06:18:57;;;;;;;26.30;17.62;;;;;;;-0.38;90.74;100288.89;1768947;80;21094;-70
2020/12/24 06:21:25;;;;;;;26.52;16.80;;;;;;;-0.38;90.73;100290.17;1699052;82;21002;-73
2020/12/24 06:24:00;;;;;;;23.87;16.02;;;;;;;-0.39;90.68;100291.03;1788865;79;21323;-74
2020/12/24 06:26:34;;;;;;;25.65;17.17;;;;;;;-0.41;90.63;100284.27;1740089;79;21048;-76
2020/12/24 06:29:04;;;;;;;21.82;14.15;;;;;;;-0.41;90.79;100286.82;1736231;79;21008;-75
2020/12/24 06:31:34;;;;;;;24.15;15.78;;;;;;;-0.42;90.84;100283.84;1747728;81;21155;-79
2020/12/24 06:34:30;;;;;;;29.27;18.35;;;;;;;-0.41;90.94;100282.55;1747872;81;21060;-75
2020/12/24 06:37:18;;;;;;;20.10;15.05;;;;;;;-0.39;91.12;100274.83;1743736;81;21428;-75
2020/12/24 06:39:48;;;;;;;;;;;;;;;-0.35;91.20;100275.23;1746509;81;21031;-74
2020/12/24 06:42:47;;;;;;;20.95;14.45;;;;;;;-0.35;91.24;100276.08;1735512;80;20592;-73
2020/12/24 06:45:27;;;;;;;19.15;14.03;;;;;;;-0.35;91.17;100283.75;1747213;80;21048;-74
2020/12/24 06:48:22;;;;;;;25.27;19.12;;;;;;;-0.36;91.31;100274.81;1747291;79;21064;-75
2020/12/24 06:51:04;;;;;;;18.95;13.40;;;;;;;-0.36;91.44;100266.70;1729102;82;22230;-74
2020/12/24 06:53:39;;;;;;;25.23;17.15;;;;;;;-0.32;91.64;100271.37;1775806;80;21060;-80
2020/12/24 06:56:21;;;;;;;;;;;;;;;-0.30;91.47;100270.08;1725713;79;21026;-75
2020/12/24 06:59:01;;;;;;;26.73;16.97;;;;;;;-0.28;91.55;100264.52;1735792;82;20570;-75
2020/12/24 07:01:35;;;;;;;25.95;16.87;;;;;;;-0.30;91.63;100255.58;1727078;82;21076;-74
2020/12/24 07:04:08;;;;;;;21.85;13.90;;;;;;;-0.29;91.78;100256.00;1749930;82;21431;-75
2020/12/24 07:06:50;;;;;;;23.25;15.58;;;;;;;-0.25;91.92;100258.95;1749073;82;21638;-73
2020/12/24 07:09:30;;;;;;;23.15;16.55;;;;;;;-0.19;91.86;100256.34;1755273;80;21021;-73
2020/12/24 07:12:00;;;;;;;20.30;14.73;;;;;;;-0.17;91.71;100254.63;1780004;80;21057;-74
2020/12/24 07:14:34;;;;;;;23.10;16.15;;;;;;;-0.13;91.56;100250.32;1733276;82;21549;-70
2020/12/24 07:17:22;;;;;;;25.95;16.62;;;;;;;-0.14;91.57;100249.91;1741474;82;21272;-69
2020/12/24 07:19:53;;;;;;;25.85;16.42;;;;;;;-0.13;91.53;100243.49;1723006;82;21066;-73
2020/12/24 07:22:26;;;;;;;26.12;16.48;;;;;;;-0.13;91.37;100242.64;1726057;82;21001;-77
2020/12/24 07:24:56;;;;;;;23.55;16.67;;;;;;;-0.16;91.37;100245.23;1751169;82;20985;-71
2020/12/24 07:27:26;;;;;;;25.92;16.17;;;;;;;-0.18;91.51;100243.11;1749848;82;21009;-72
2020/12/24 07:29:54;;;;;;;24.40;15.72;;;;;;;-0.17;91.66;100241.83;1746375;81;21209;-71
2020/12/24 07:32:22;;;;;;;25.12;15.58;;;;;;;-0.19;91.74;100226.91;1731343;82;21056;-74
2020/12/24 07:34:51;;;;;;;28.60;17.52;;;;;;;-0.17;91.92;100226.47;1716599;82;21111;-68
2020/12/24 07:37:21;;;;;;;24.82;14.07;;;;;;;-0.15;92.07;100224.74;1741065;82;21010;-72
2020/12/24 07:39:53;;;;;;;26.33;16.73;;;;;;;-0.14;92.06;100227.72;1726500;82;37070;-75
2020/12/24 07:42:23;;;;;;;34.43;17.57;;;;;;;-0.12;92.26;100223.87;1741327;82;21301;-72
2020/12/24 07:44:52;;;;;;;30.95;19.77;;;;;;;-0.09;92.33;100224.69;1750114;82;21064;-68
2020/12/24 07:47:20;;;;;;;36.73;21.25;;;;;;;-0.07;92.15;100217.00;1750173;82;21068;-70
2020/12/24 07:49:51;;;;;;;32.10;20.05;;;;;;;-0.04;92.11;100220.81;1750180;82;21158;-71
2020/12/24 07:52:19;;;;;;;31.65;18.67;;;;;;;-0.02;92.13;100222.48;1744067;80;21622;-68
2020/12/24 07:54:48;;;;;;;37.28;20.70;;;;;;;0.01;92.08;100219.02;1724965;82;21618;-68
2020/12/24 07:57:23;;;;;;;33.45;20.25;;;;;;;0.06;91.96;100219.83;1687334;84;21057;-68
2020/12/24 08:00:00;;;;;;;45.73;24.52;;;;;;;0.07;91.92;100216.83;1687875;85;21227;-67
2020/12/24 08:02:28;;;;;;;34.08;18.87;;;;;;;0.12;92.15;100211.23;1687440;85;21073;-68
2020/12/24 08:04:57;;;;;;;37.73;21.12;;;;;;;0.15;91.80;100210.77;1689361;83;22444;-68
2020/12/24 08:07:26;;;;;;;35.23;20.60;;;;;;;0.16;91.59;100215.45;1692783;84;21514;-68
2020/12/24 08:09:55;;;;;;;32.15;18.00;;;;;;;0.16;91.51;100212.90;1743193;80;21665;-69
2020/12/24 08:12:23;;;;;;;39.70;22.67;;;;;;;0.17;91.48;100224.84;1746349;80;21704;-69
2020/12/24 08:14:54;;;;;;;37.73;23.00;;;;;;;0.15;91.36;100228.69;1751463;81;21755;-68
2020/12/24 08:17:33;;;;;;;31.55;19.85;;;;;;;0.16;91.37;100232.09;1745147;80;21607;-77
2020/12/24 08:20:10;;;;;;;34.30;20.10;;;;;;;0.19;91.52;100230.79;1764031;80;21060;-70
2020/12/24 08:22:49;;;;;;;27.85;17.07;;;;;;;0.20;91.44;100224.80;1770385;80;21032;-71
2020/12/24 08:25:19;;;;;;;38.78;22.87;;;;;;;0.19;91.31;100223.95;1716626;82;21075;-72
2020/12/24 08:27:47;;;;;;;34.60;20.92;;;;;;;0.19;91.25;100219.27;1716509;83;20991;-72
2020/12/24 08:30:16;;;;;;;31.77;19.90;;;;;;;0.18;91.37;100218.42;1716325;82;20995;-71
2020/12/24 08:32:44;;;;;;;40.58;25.57;;;;;;;0.21;91.43;100214.98;1716717;83;22107;-69
2020/12/24 08:35:14;;;;;;;31.87;22.40;;;;;;;0.22;91.29;100217.52;1711306;83;20975;-70
2020/12/24 08:37:42;;;;;;;38.20;24.77;;;;;;;0.24;91.26;100214.95;1707738;83;21004;-71
2020/12/24 08:40:22;;;;;;;31.80;21.55;;;;;;;0.30;91.36;100218.29;1725277;83;21068;-70
2020/12/24 08:43:00;;;;;;;34.18;20.72;;;;;;;0.37;91.44;100222.91;1779296;80;20997;-75
2020/12/24 08:45:29;;;;;;;35.15;20.72;;;;;;;0.43;91.27;100217.69;1766987;80;21365;-73
2020/12/24 08:47:59;;;;;;;30.62;19.70;;;;;;;0.48;91.00;100219.77;1774750;80;21077;-73
2020/12/24 08:50:35;;;;;;;28.38;18.40;;;;;;;0.49;90.76;100219.33;1712657;83;21719;-72
2020/12/24 08:53:06;;;;;;;30.82;18.30;;;;;;;0.51;90.58;100218.88;1716783;83;21035;-72
2020/12/24 08:55:34;;;;;;;25.82;15.95;;;;;;;0.50;90.40;100213.34;1716128;83;21067;-72
2020/12/24 08:58:03;;;;;;;30.00;18.90;;;;;;;0.52;90.28;100208.62;1716981;83;22231;-68
2020/12/24 09:00:31;;;;;;;30.65;20.65;;;;;;;0.54;90.28;100201.76;1705694;82;21653;-67
2020/12/24 09:02:59;;;;;;;31.52;21.35;;;;;;;0.56;89.88;100191.49;1727100;83;21116;-67
2020/12/24 09:05:28;;;;;;;30.02;17.80;;;;;;;0.54;89.89;100186.82;1774925;80;21104;-68
2020/12/24 09:07:57;;;;;;;28.40;19.27;;;;;;;0.54;90.09;100190.66;1768768;80;21045;-67
2020/12/24 09:10:26;;;;;;;26.02;18.25;;;;;;;0.57;90.24;100191.47;1757644;79;21392;-68
2020/12/24 09:13:02;;;;;;;28.17;19.42;;;;;;;0.62;90.16;100202.95;1746448;82;21064;-67
2020/12/24 09:15:31;;;;;;;;;;;;;;;0.65;89.98;100197.35;1749495;80;21061;-80
2020/12/24 09:18:00;;;;;;;23.83;15.72;;;;;;;0.66;89.96;100195.20;1782040;80;20184;-69
2020/12/24 09:20:31;;;;;;;21.57;13.68;;;;;;;0.68;89.81;100191.77;1783776;80;21060;-72
2020/12/24 09:23:01;;;;;;;22.42;15.63;;;;;;;0.67;89.77;100187.08;1783174;80;21283;-73
2020/12/24 09:25:36;;;;;;;21.07;14.20;;;;;;;0.65;89.66;100183.69;1782800;80;21092;-71
2020/12/24 09:28:05;;;;;;;24.55;16.42;;;;;;;0.63;89.73;100178.59;1782857;80;21068;-76
2020/12/24 09:30:34;;;;;;;23.87;16.10;;;;;;;0.61;89.55;100176.48;1783693;80;21223;-74
2020/12/24 09:33:02;;;;;;;22.90;15.83;;;;;;;0.56;89.68;100170.56;1761403;80;21028;-77
2020/12/24 09:35:31;;;;;;;26.82;17.62;;;;;;;0.56;89.78;100160.75;1752927;81;21198;-74
2020/12/24 09:37:59;;;;;;;24.10;16.48;;;;;;;0.54;89.87;100155.64;1753257;81;21665;-73
2020/12/24 09:40:28;;;;;;;25.65;16.00;;;;;;;0.55;90.01;100151.36;1752631;81;21068;-70
2020/12/24 09:42:58;;;;;;;30.62;18.82;;;;;;;0.59;90.05;100156.43;1764791;80;20995;-71
2020/12/24 09:45:28;;;;;;;23.15;16.62;;;;;;;0.61;90.00;100147.44;1771397;80;21048;-73
2020/12/24 09:47:57;;;;;;;24.02;16.15;;;;;;;0.63;89.93;100155.52;1780150;80;21363;-70
2020/12/24 09:50:26;;;;;;;23.77;15.08;;;;;;;0.64;89.78;100153.81;1764436;80;21114;-71
2020/12/24 09:52:54;;;;;;;25.32;16.62;;;;;;;0.63;89.61;100159.37;1767020;80;21055;-70
2020/12/24 09:55:22;;;;;;;24.52;15.58;;;;;;;0.61;89.53;100157.26;1766640;80;21174;-72
2020/12/24 09:57:50;;;;;;;24.57;16.25;;;;;;;0.58;89.71;100156.02;1767355;80;21629;-73
2020/12/24 10:00:20;;;;;;;22.95;16.25;;;;;;;0.56;89.73;100151.78;1771241;79;21370;-74
2020/12/24 10:02:48;;;;;;;25.35;17.55;;;;;;;0.56;89.85;100149.22;1760076;80;20985;-71
2020/12/24 10:05:16;;;;;;;30.12;19.87;;;;;;;0.56;89.76;100144.94;1753444;81;21490;-69
2020/12/24 10:07:46;;;;;;;25.20;16.50;;;;;;;0.57;89.68;100140.23;1776792;80;21006;-79
2020/12/24 10:10:14;;;;;;;23.95;14.87;;;;;;;0.57;89.47;100140.23;1784439;80;21005;-72
2020/12/24 10:12:43;;;;;;;25.08;15.68;;;;;;;0.56;89.44;100138.53;1783123;80;21200;-73
2020/12/24 10:15:11;;;;;;;23.67;16.15;;;;;;;0.53;89.44;100135.16;1783378;80;21068;-71
2020/12/24 10:17:39;;;;;;;22.58;14.20;;;;;;;0.50;89.37;100141.17;1776901;80;21080;-73
2020/12/24 10:20:08;;;;;;;24.80;16.30;;;;;;;0.47;89.53;100136.52;1716224;82;21092;-71
2020/12/24 10:22:36;;;;;;;22.85;16.07;;;;;;;0.43;89.59;100137.43;1704039;82;20971;-71
2020/12/24 10:25:05;;;;;;;23.47;15.70;;;;;;;0.42;89.85;100134.02;1765668;80;21198;-69
2020/12/24 10:27:33;;;;;;;23.65;16.30;;;;;;;0.44;89.74;100134.85;1727132;83;21633;-71
2020/12/24 10:30:01;;;;;;;20.80;15.38;;;;;;;0.42;89.70;100125.48;1748952;81;21052;-70
2020/12/24 10:32:30;;;;;;;28.05;17.02;;;;;;;0.41;89.72;100119.52;1796964;79;20941;-71
2020/12/24 10:34:58;;;;;;;27.22;16.15;;;;;;;0.37;89.76;100117.90;1793011;79;21023;-71
2020/12/24 10:37:26;;;;;;;26.77;16.15;;;;;;;0.33;89.79;100110.69;1727243;83;21258;-72
2020/12/24 10:39:54;;;;;;;26.80;16.40;;;;;;;0.30;90.09;100109.45;1724787;83;21058;-70
2020/12/24 10:42:22;;;;;;;25.40;15.20;;;;;;;0.30;90.33;100103.05;1714613;82;20996;-70
2020/12/24 10:44:51;;;;;;;28.92;16.20;;;;;;;0.32;90.19;100106.86;1702822;83;21106;-73
2020/12/24 10:47:19;;;;;;;25.43;16.30;;;;;;;0.30;90.27;100098.35;1711493;82;20933;-72
2020/12/24 10:49:48;;;;;;;33.48;18.87;;;;;;;0.31;90.35;100097.05;1720282;83;21883;-72
2020/12/24 10:52:16;;;;;;;27.82;17.67;;;;;;;0.32;90.35;100092.78;1764969;80;21068;-70
2020/12/24 10:54:45;;;;;;;27.45;17.07;;;;;;;0.32;90.32;100089.78;1778559;80;21041;-70
2020/12/24 10:57:16;;;;;;;32.28;18.55;;;;;;;0.32;90.50;100080.82;1769731;80;21013;-70
2020/12/24 10:59:44;;;;;;;33.25;18.35;;;;;;;0.34;90.40;100079.52;1755115;80;21000;-72
2020/12/24 11:02:13;;;;;;;27.70;18.42;;;;;;;0.36;90.56;100068.82;1754341;80;21604;-68
2020/12/24 11:04:41;;;;;;;30.80;19.62;;;;;;;0.41;90.53;100068.73;1753027;81;21753;-70
2020/12/24 11:07:11;;;;;;;30.80;18.05;;;;;;;0.41;90.33;100065.73;1772508;79;21729;-70
2020/12/24 11:09:40;;;;;;;28.40;17.42;;;;;;;0.41;90.09;100067.02;1784034;79;20953;-69
2020/12/24 11:12:08;;;;;;;24.75;16.27;;;;;;;0.40;89.94;100065.31;1782656;80;20946;-70
2020/12/24 11:14:37;;;;;;;26.48;17.07;;;;;;;0.41;90.05;100059.33;1772991;80;22168;-68
2020/12/24 11:17:05;;;;;;;31.10;16.90;;;;;;;0.37;89.95;100053.86;1754621;80;21057;-68
2020/12/24 11:19:34;;;;;;;32.28;18.77;;;;;;;0.37;89.98;100053.02;1741554;81;21013;-70
2020/12/24 11:22:02;;;;;;;24.75;16.48;;;;;;;0.36;89.93;100052.17;1688456;85;21696;-69
2020/12/24 11:24:31;;;;;;;31.68;18.27;;;;;;;0.33;89.82;100056.05;1739219;82;21013;-69